SWVU weather

Fazenda Ramalhete Airport
Rio Brilhante, Mato Grosso do Sul, Brazil

Public forecast

Using degrees Celsius for public forecast. Weather courtesy of forecast.io.

Closest aviation weather report (METAR) to Fazenda Ramalhete Airport

Report is more than 6 hours old.

Closest report is Fazenda Cachoeira do Lontra Airport, 55.3 nm (102.4 km) ENE. Retrieved 2010/07/12 18:56 UTC (10 years ago):

SINS 121856Z 30010KT 10SM SCT150 38/08 A2988 RMK AO2 SLP052 T03780083 $

Closest aviation forecast (TAF) to Fazenda Ramalhete Airport

Forecast is more than 6 hours old.

Closest forecast is Campo Grande Airport, 76.1 nm (141.0 km) N. Retrieved 2020-02-27 00:00 UTC (6 hours ago):

TAF SBCG 262130Z 2700/2724 15007KT 9999 SCT025 TN19/2708Z TX28/2718Z BECMG 2702/2704 CAVOK PROB40 2708/2710 3000 BR FEW002 BECMG 2713/2715 9999 SCT040 BECMG 2721/2723 11007KT CAVOK RMK PDW